createdAt,value
2022-08-09T00:00:04.495Z,1.73
2022-08-09T00:02:33.327Z,1.70
2022-08-09T00:05:03.711Z,2.30
2022-08-09T00:07:46.931Z,2.28
2022-08-09T00:10:14.402Z,2.28
2022-08-09T00:12:52.795Z,2.15
2022-08-09T00:15:26.615Z,2.03
2022-08-09T00:18:12.148Z,2.00
2022-08-09T00:20:42.427Z,2.40
2022-08-09T00:23:56.056Z,2.70
2022-08-09T00:26:05.067Z,2.25
2022-08-09T00:28:31.932Z,2.20
2022-08-09T00:31:01.189Z,2.38
2022-08-09T00:33:50.360Z,2.30
2022-08-09T00:36:17.856Z,2.20
2022-08-09T00:38:45.270Z,2.20
2022-08-09T00:41:11.842Z,2.60
2022-08-09T00:44:13.946Z,2.35
2022-08-09T00:46:55.760Z,2.92
2022-08-09T00:49:23.304Z,2.60
2022-08-09T00:51:56.072Z,2.67
2022-08-09T00:54:31.487Z,2.70
2022-08-09T00:57:02.207Z,2.42
2022-08-09T00:59:41.551Z,2.78
2022-08-09T01:02:21.934Z,2.78
2022-08-09T01:05:00.790Z,2.90
2022-08-09T01:08:00.690Z,3.53
2022-08-09T01:10:32.546Z,3.20
2022-08-09T01:13:12.931Z,2.75
2022-08-09T01:15:52.225Z,2.90
2022-08-09T01:18:29.661Z,3.00
2022-08-09T01:21:44.820Z,3.22
2022-08-09T01:24:39.109Z,3.20
2022-08-09T01:27:15.162Z,3.30
2022-08-09T01:29:56.095Z,3.20
2022-08-09T01:32:31.153Z,3.17
2022-08-09T01:35:18.288Z,3.70
2022-08-09T01:38:07.872Z,3.75
2022-08-09T01:40:41.172Z,3.10
2022-08-09T01:43:08.722Z,3.95
2022-08-09T01:45:46.215Z,3.30
2022-08-09T01:48:17.086Z,3.65
2022-08-09T01:50:54.968Z,3.55
2022-08-09T01:53:22.618Z,3.55
2022-08-09T01:55:50.915Z,3.30
2022-08-09T01:58:17.704Z,4.10
2022-08-09T02:00:46.332Z,3.40
2022-08-09T02:03:19.303Z,4.03
2022-08-09T02:06:03.899Z,3.72
2022-08-09T02:08:56.953Z,4.45
2022-08-09T02:11:23.677Z,3.60
2022-08-09T02:14:02.055Z,4.35
2022-08-09T02:16:53.094Z,3.90
2022-08-09T02:19:23.973Z,3.80
2022-08-09T02:21:55.197Z,4.30
2022-08-09T02:24:26.647Z,4.05
2022-08-09T02:26:58.607Z,4.32
2022-08-09T02:29:31.264Z,4.00
2022-08-09T02:32:02.636Z,4.65
2022-08-09T02:34:40.571Z,4.00
2022-08-09T02:37:21.519Z,4.47
2022-08-09T02:40:01.816Z,4.53
2022-08-09T02:42:37.059Z,4.63
2022-08-09T02:45:15.318Z,5.17
2022-08-09T02:47:58.121Z,4.78
2022-08-09T02:50:36.561Z,4.60
2022-08-09T02:53:09.996Z,4.82
2022-08-09T02:55:58.330Z,5.47
2022-08-09T02:58:36.559Z,5.32
2022-08-09T03:01:08.183Z,4.88
2022-08-09T03:04:17.773Z,5.28
2022-08-09T03:06:27.405Z,5.43
2022-08-09T03:08:56.661Z,5.47
2022-08-09T03:12:05.241Z,5.10
2022-08-09T03:14:12.625Z,5.32
2022-08-09T03:16:44.714Z,5.13
2022-08-09T03:19:14.313Z,5.38
2022-08-09T03:22:03.352Z,5.85
2022-08-09T03:24:42.717Z,5.40
2022-08-09T03:27:17.526Z,5.80
2022-08-09T03:29:58.263Z,5.38
2022-08-09T03:32:30.949Z,5.35
2022-08-09T03:34:58.561Z,5.53
2022-08-09T03:37:56.414Z,5.80
2022-08-09T03:40:13.484Z,5.57
2022-08-09T03:42:44.208Z,6.03
2022-08-09T03:45:11.547Z,5.85
2022-08-09T03:47:41.889Z,5.80
2022-08-09T03:50:12.211Z,5.47
2022-08-09T03:52:41.789Z,5.72
2022-08-09T03:55:10.429Z,6.25
2022-08-09T03:57:53.655Z,6.15
2022-08-09T04:00:28.533Z,6.57
2022-08-09T04:02:57.288Z,5.60
2022-08-09T04:05:27.307Z,6.05
2022-08-09T04:07:57.667Z,6.28
2022-08-09T04:10:29.519Z,6.45
2022-08-09T04:13:01.384Z,6.43
2022-08-09T04:16:18.721Z,6.60
2022-08-09T04:18:17.980Z,7.15
2022-08-09T04:20:47.345Z,6.93
2022-08-09T04:23:17.322Z,6.60
2022-08-09T04:25:51.819Z,7.95
2022-08-09T04:28:32.887Z,7.38
2022-08-09T04:31:09.243Z,7.28
2022-08-09T04:33:52.333Z,7.53
2022-08-09T04:36:23.417Z,7.18
2022-08-09T04:38:51.011Z,7.38
2022-08-09T04:41:18.574Z,7.47
2022-08-09T04:43:46.576Z,7.30
2022-08-09T04:46:57.747Z,6.80
2022-08-09T04:49:22.348Z,7.10
2022-08-09T04:52:06.143Z,6.80
2022-08-09T04:54:34.097Z,7.18
2022-08-09T04:57:00.479Z,7.25
2022-08-09T04:59:30.338Z,7.43
2022-08-09T05:01:56.734Z,7.57
2022-08-09T05:04:23.226Z,6.90
2022-08-09T05:06:57.354Z,7.78
2022-08-09T05:09:24.453Z,6.53
2022-08-09T05:11:51.494Z,7.18
2022-08-09T05:14:18.384Z,8.15
2022-08-09T05:16:58.728Z,7.88
2022-08-09T05:19:31.937Z,7.20
2022-08-09T05:22:36.111Z,7.85
2022-08-09T05:24:57.475Z,7.72
2022-08-09T05:27:31.068Z,7.20
2022-08-09T05:29:57.965Z,7.45
2022-08-09T05:32:26.072Z,8.15
2022-08-09T05:34:56.658Z,6.97
2022-08-09T05:37:23.230Z,7.88
2022-08-09T05:39:51.797Z,7.03
2022-08-09T05:42:21.927Z,7.28
2022-08-09T05:44:55.407Z,7.28
2022-08-09T05:47:23.718Z,6.85
2022-08-09T05:50:26.786Z,6.60
2022-08-09T05:52:42.640Z,6.25
2022-08-09T05:55:18.204Z,6.65
2022-08-09T05:57:51.383Z,6.07
2022-08-09T06:02:49.308Z,6.57
2022-08-09T06:05:20.816Z,6.40
2022-08-09T06:08:08.086Z,6.45
2022-08-09T06:10:35.640Z,6.22
2022-08-09T06:13:20.144Z,5.85
2022-08-09T06:15:51.617Z,4.97
2022-08-09T06:18:20.479Z,4.88
2022-08-09T06:20:54.537Z,4.60
2022-08-09T06:23:55.354Z,4.30
2022-08-09T06:26:21.309Z,3.83
2022-08-09T06:29:00.504Z,3.83
2022-08-09T06:31:31.052Z,4.30
2022-08-09T06:34:05.718Z,4.50
2022-08-09T06:36:33.803Z,4.43
2022-08-09T06:39:02.636Z,3.78
2022-08-09T06:42:06.404Z,3.92
2022-08-09T06:44:21.763Z,4.20
2022-08-09T06:46:48.106Z,4.45
2022-08-09T06:49:29.219Z,4.60
2022-08-09T06:52:02.944Z,4.18
2022-08-09T06:54:29.568Z,4.35
2022-08-09T06:56:55.912Z,4.28
2022-08-09T07:00:49.218Z,4.07
2022-08-09T07:02:08.667Z,4.22
2022-08-09T07:04:35.291Z,3.72
2022-08-09T07:07:05.021Z,3.90
2022-08-09T07:09:56.439Z,3.88
2022-08-09T07:12:20.214Z,4.10
2022-08-09T07:15:53.888Z,4.10
2022-08-09T07:17:55.944Z,4.20
2022-08-09T07:20:22.822Z,3.72
2022-08-09T07:22:53.527Z,3.42
2022-08-09T07:25:20.921Z,2.58
2022-08-09T07:27:53.456Z,2.90
2022-08-09T07:30:25.275Z,2.60
2022-08-09T07:32:52.807Z,2.60
2022-08-09T07:35:21.315Z,2.55
2022-08-09T07:37:49.360Z,2.50
2022-08-09T07:40:20.234Z,2.45
2022-08-09T07:42:54.553Z,2.30
2022-08-09T07:45:37.462Z,2.90
2022-08-09T07:48:28.862Z,2.50
2022-08-09T07:51:09.329Z,2.38
2022-08-09T07:54:04.955Z,2.40
2022-08-09T07:56:34.971Z,2.60
2022-08-09T07:59:10.505Z,2.67
2022-08-09T08:01:40.593Z,2.40
2022-08-09T08:04:10.637Z,2.38
2022-08-09T08:06:37.457Z,2.50
2022-08-09T08:12:23.909Z,2.70
2022-08-09T08:14:55.002Z,2.40
2022-08-09T08:17:34.986Z,2.63
2022-08-09T08:20:13.195Z,2.60
2022-08-09T08:22:40.845Z,2.60
2022-08-09T08:25:13.261Z,2.10
2022-08-09T08:27:41.174Z,2.40
2022-08-09T08:30:11.505Z,2.20
2022-08-09T08:32:41.517Z,2.15
2022-08-09T08:35:22.475Z,2.55
2022-08-09T08:37:59.437Z,2.20
2022-08-09T08:40:29.703Z,2.15
2022-08-09T08:42:58.698Z,2.13
2022-08-09T08:45:53.323Z,2.13
2022-08-09T08:48:22.234Z,2.40
2022-08-09T08:50:49.264Z,2.50
2022-08-09T08:53:22.010Z,2.35
2022-08-09T08:55:48.731Z,2.40
2022-08-09T08:58:19.580Z,2.50
2022-08-09T09:00:54.295Z,2.00
2022-08-09T09:03:37.063Z,2.17
2022-08-09T09:06:05.199Z,2.47
2022-08-09T09:08:41.001Z,2.42
2022-08-09T09:11:17.745Z,2.72
2022-08-09T09:13:56.997Z,2.05
2022-08-09T09:16:34.571Z,2.00
2022-08-09T09:19:37.076Z,2.20
2022-08-09T09:21:56.639Z,2.20
2022-08-09T09:24:34.493Z,2.15
2022-08-09T09:27:02.555Z,2.65
2022-08-09T09:32:35.834Z,2.28
2022-08-09T09:35:09.106Z,2.10
2022-08-09T09:37:40.560Z,1.63
2022-08-09T09:40:08.499Z,2.33
2022-08-09T09:42:35.536Z,2.17
2022-08-09T09:45:06.572Z,2.08
2022-08-09T09:47:40.760Z,1.85
2022-08-09T09:50:15.902Z,2.17
2022-08-09T09:52:56.432Z,2.22
2022-08-09T09:55:32.002Z,1.92
2022-08-09T09:58:17.318Z,2.10
2022-08-09T10:00:58.490Z,2.13
2022-08-09T10:03:43.636Z,2.20
2022-08-09T10:06:11.684Z,2.33
2022-08-09T10:08:54.432Z,2.10
2022-08-09T10:11:53.930Z,2.03
2022-08-09T10:14:27.270Z,2.35
2022-08-09T10:17:11.343Z,2.40
2022-08-09T10:19:45.903Z,2.40
2022-08-09T10:22:12.696Z,2.67
2022-08-09T10:24:40.560Z,2.22
2022-08-09T10:27:10.351Z,2.38
2022-08-09T10:30:49.466Z,2.30
2022-08-09T10:32:42.517Z,2.05
2022-08-09T10:35:17.311Z,2.42
2022-08-09T10:37:47.729Z,3.25
2022-08-09T10:40:33.334Z,2.33
2022-08-09T10:43:04.591Z,2.30
2022-08-09T10:45:35.380Z,2.70
2022-08-09T10:48:36.936Z,2.75
2022-08-09T10:51:09.320Z,2.75
2022-08-09T10:53:54.821Z,2.63
2022-08-09T10:56:33.316Z,2.30
2022-08-09T10:59:23.223Z,1.98
2022-08-09T11:03:17.922Z,2.47
2022-08-09T11:05:25.116Z,2.33
2022-08-09T11:07:58.279Z,2.38
2022-08-09T11:10:53.229Z,2.22
2022-08-09T11:13:49.083Z,2.20
2022-08-09T11:16:35.491Z,2.60
2022-08-09T11:19:07.843Z,2.42
2022-08-09T11:22:05.026Z,2.67
2022-08-09T11:25:03.848Z,2.40
2022-08-09T11:28:08.017Z,2.70
2022-08-09T11:30:36.537Z,2.50
2022-08-09T11:33:24.808Z,2.47
2022-08-09T11:35:58.935Z,2.58
2022-08-09T11:38:32.063Z,2.33
2022-08-09T11:41:12.885Z,2.38
2022-08-09T11:43:47.494Z,2.75
2022-08-09T11:46:26.792Z,2.60
2022-08-09T11:49:00.887Z,2.70
2022-08-09T11:53:04.226Z,2.35
2022-08-09T11:55:39.919Z,2.33
2022-08-09T11:58:15.443Z,2.10
2022-08-09T12:00:49.882Z,2.70
2022-08-09T12:03:50.390Z,2.17
2022-08-09T12:06:26.625Z,2.60
2022-08-09T12:08:55.745Z,2.10
2022-08-09T12:11:24.530Z,2.40
2022-08-09T12:14:10.013Z,2.30
2022-08-09T12:16:45.334Z,2.25
2022-08-09T12:19:13.510Z,2.35
2022-08-09T12:21:50.720Z,1.92
2022-08-09T12:24:24.680Z,2.58
2022-08-09T12:29:00.186Z,2.53
2022-08-09T12:29:44.556Z,2.20
2022-08-09T12:32:26.263Z,2.25
2022-08-09T12:34:59.038Z,2.40
2022-08-09T12:37:44.229Z,2.38
2022-08-09T12:40:17.986Z,2.15
2022-08-09T12:42:45.957Z,1.98
2022-08-09T12:45:34.030Z,2.35
2022-08-09T12:47:59.247Z,2.28
2022-08-09T12:50:27.066Z,2.58
2022-08-09T12:53:18.436Z,2.58
2022-08-09T12:56:14.088Z,2.20
2022-08-09T12:58:28.677Z,2.35
2022-08-09T13:00:55.845Z,2.30
2022-08-09T13:03:53.300Z,2.15
2022-08-09T13:06:35.601Z,2.67
2022-08-09T13:09:06.834Z,2.58
2022-08-09T13:11:39.543Z,2.17
2022-08-09T13:14:43.838Z,2.38
2022-08-09T13:17:01.121Z,2.38
2022-08-09T13:20:09.981Z,2.40
2022-08-09T13:25:12.065Z,2.70
2022-08-09T13:27:48.781Z,1.98
2022-08-09T13:30:50.715Z,2.30
2022-08-09T13:33:11.664Z,2.72
2022-08-09T13:36:23.357Z,2.38
2022-08-09T13:38:54.200Z,2.00
2022-08-09T13:41:55.683Z,2.45
2022-08-09T13:43:57.772Z,2.03
2022-08-09T13:47:16.038Z,2.00
2022-08-09T13:49:18.060Z,2.30
2022-08-09T13:51:58.824Z,2.70
2022-08-09T13:54:27.477Z,1.88
2022-08-09T13:56:56.787Z,2.40
2022-08-09T13:59:25.402Z,1.80
2022-08-09T14:02:01.316Z,2.00
2022-08-09T14:04:29.141Z,2.20
2022-08-09T14:07:00.912Z,1.95
2022-08-09T14:12:02.071Z,1.75
2022-08-09T14:14:35.020Z,1.90
2022-08-09T14:17:01.679Z,1.90
2022-08-09T14:19:33.279Z,1.77
2022-08-09T14:22:00.218Z,2.20
2022-08-09T14:24:32.598Z,1.80
2022-08-09T14:27:00.238Z,1.92
2022-08-09T14:30:35.442Z,2.35
2022-08-09T14:32:16.469Z,1.83
2022-08-09T14:34:46.577Z,1.98
2022-08-09T14:37:22.316Z,1.92
2022-08-09T14:39:55.168Z,1.65
2022-08-09T14:42:31.002Z,1.95
2022-08-09T14:45:00.826Z,1.92
2022-08-09T14:47:45.247Z,1.63
2022-08-09T14:50:13.213Z,1.70
2022-08-09T14:52:43.007Z,1.42
2022-08-09T14:55:09.915Z,2.10
2022-08-09T14:57:43.181Z,1.98
2022-08-09T15:00:10.825Z,1.60
2022-08-09T15:02:37.582Z,1.75
2022-08-09T15:05:04.381Z,1.92
2022-08-09T15:07:35.376Z,1.88
2022-08-09T15:10:10.500Z,1.75
2022-08-09T15:12:37.807Z,2.00
2022-08-09T15:15:08.637Z,1.85
2022-08-09T15:17:41.867Z,1.83
2022-08-09T15:20:11.798Z,1.77
2022-08-09T15:22:46.645Z,1.67
2022-08-09T15:25:14.260Z,1.90
2022-08-09T15:27:47.709Z,1.65
2022-08-09T15:30:57.214Z,1.65
2022-08-09T15:33:07.820Z,1.55
2022-08-09T15:35:44.147Z,1.67
2022-08-09T15:38:12.185Z,1.90
2022-08-09T15:40:43.912Z,1.83
2022-08-09T15:43:13.446Z,1.80
2022-08-09T15:46:07.311Z,1.65
2022-08-09T15:48:29.484Z,1.80
2022-08-09T15:50:58.425Z,1.60
2022-08-09T15:54:03.829Z,1.40
2022-08-09T15:56:28.443Z,1.58
2022-08-09T15:58:56.052Z,1.70
2022-08-09T16:01:22.651Z,2.10
2022-08-09T16:03:50.870Z,1.73
2022-08-09T16:06:35.764Z,1.77
2022-08-09T16:09:05.491Z,1.45
2022-08-09T16:11:33.111Z,1.83
2022-08-09T16:14:04.082Z,1.45
2022-08-09T16:16:34.607Z,1.60
2022-08-09T16:19:01.410Z,1.58
2022-08-09T16:21:27.886Z,1.50
2022-08-09T16:24:02.311Z,2.05
2022-08-09T16:26:33.573Z,1.42
2022-08-09T16:29:10.604Z,1.40
2022-08-09T16:32:19.375Z,1.55
2022-08-09T16:34:27.222Z,1.42
2022-08-09T16:36:55.723Z,1.80
2022-08-09T16:39:26.046Z,1.40
2022-08-09T16:42:02.536Z,1.13
2022-08-09T16:44:31.554Z,1.45
2022-08-09T16:47:01.903Z,1.38
2022-08-09T16:50:29.749Z,1.25
2022-08-09T16:52:31.325Z,1.35
2022-08-09T16:54:57.989Z,1.38
2022-08-09T16:57:24.334Z,1.60
2022-08-09T16:59:57.449Z,1.48
2022-08-09T17:02:25.478Z,1.70
2022-08-09T17:04:52.087Z,2.28
2022-08-09T17:08:44.725Z,1.73
2022-08-09T17:10:08.715Z,1.60
2022-08-09T17:12:35.609Z,1.30
2022-08-09T17:15:02.180Z,1.20
2022-08-09T17:17:50.626Z,1.55
2022-08-09T17:20:32.428Z,1.40
2022-08-09T17:23:04.054Z,1.50
2022-08-09T17:25:32.013Z,1.30
2022-08-09T17:28:05.738Z,1.30
2022-08-09T17:30:33.462Z,2.10
2022-08-09T17:33:04.996Z,1.70
2022-08-09T17:35:33.958Z,1.48
2022-08-09T17:38:12.511Z,1.63
2022-08-09T17:40:41.336Z,1.25
2022-08-09T17:43:32.375Z,1.73
2022-08-09T17:46:04.431Z,1.20
2022-08-09T17:48:40.288Z,1.20
2022-08-09T17:51:17.507Z,1.30
2022-08-09T17:53:51.378Z,1.02
2022-08-09T17:56:19.466Z,1.50
2022-08-09T17:58:47.156Z,1.05
2022-08-09T18:01:22.682Z,1.23
2022-08-09T18:03:52.474Z,1.38
2022-08-09T18:06:31.301Z,0.98
2022-08-09T18:09:04.487Z,1.10
2022-08-09T18:12:05.517Z,1.27
2022-08-09T18:14:21.428Z,1.20
2022-08-09T18:16:49.591Z,1.20
2022-08-09T18:20:55.300Z,1.30
2022-08-09T18:22:03.543Z,1.15
2022-08-09T18:24:29.895Z,0.90
2022-08-09T18:26:57.783Z,1.10
2022-08-09T18:30:42.268Z,1.20
2022-08-09T18:32:14.141Z,1.33
2022-08-09T18:34:45.225Z,1.02
2022-08-09T18:37:47.657Z,1.30
2022-08-09T18:39:57.962Z,1.20
2022-08-09T18:42:29.248Z,0.95
2022-08-09T18:44:56.096Z,1.30
2022-08-09T18:47:24.311Z,1.15
2022-08-09T18:49:54.288Z,1.35
2022-08-09T18:52:34.624Z,1.40
2022-08-09T18:55:02.227Z,1.40
2022-08-09T18:57:38.412Z,1.40
2022-08-09T19:00:10.948Z,1.50
2022-08-09T19:02:38.221Z,1.23
2022-08-09T19:05:20.181Z,1.40
2022-08-09T19:08:04.786Z,1.10
2022-08-09T19:10:39.262Z,1.13
2022-08-09T19:13:20.388Z,1.30
2022-08-09T19:15:55.722Z,1.30
2022-08-09T19:18:33.976Z,1.20
2022-08-09T19:21:09.688Z,1.60
2022-08-09T19:24:37.669Z,1.35
2022-08-09T19:26:31.892Z,1.48
2022-08-09T19:29:09.435Z,2.33
2022-08-09T19:31:45.468Z,1.75
2022-08-09T19:34:21.782Z,1.50
2022-08-09T19:36:50.738Z,1.67
2022-08-09T19:39:17.167Z,1.67
2022-08-09T19:41:47.067Z,1.40
2022-08-09T19:44:17.705Z,1.77
2022-08-09T19:46:50.280Z,1.60
2022-08-09T19:50:09.905Z,1.60
2022-08-09T19:52:06.970Z,1.58
2022-08-09T19:54:33.378Z,1.33
2022-08-09T19:57:00.105Z,1.35
2022-08-09T19:59:58.858Z,1.40
2022-08-09T20:04:07.058Z,1.45
2022-08-09T20:05:01.445Z,1.30
2022-08-09T20:07:56.621Z,1.60
2022-08-09T20:10:22.029Z,1.30
2022-08-09T20:12:49.028Z,1.48
2022-08-09T20:16:37.028Z,1.40
2022-08-09T20:18:02.668Z,1.60
2022-08-09T20:20:28.995Z,1.73
2022-08-09T20:22:56.063Z,1.80
2022-08-09T20:25:23.202Z,1.73
2022-08-09T20:27:49.732Z,1.60
2022-08-09T20:30:17.928Z,1.83
2022-08-09T20:32:48.499Z,1.80
2022-08-09T20:35:19.040Z,1.60
2022-08-09T20:38:20.669Z,1.27
2022-08-09T20:40:31.877Z,1.80
2022-08-09T20:43:17.950Z,1.65
2022-08-09T20:46:00.270Z,1.40
2022-08-09T20:48:32.126Z,1.83
2022-08-09T20:51:00.785Z,1.90
2022-08-09T20:53:37.355Z,1.92
2022-08-09T20:56:09.338Z,1.88
2022-08-09T20:58:46.947Z,1.58
2022-08-09T21:01:34.673Z,1.67
2022-08-09T21:04:07.952Z,1.80
2022-08-09T21:06:48.496Z,2.10
2022-08-09T21:09:24.760Z,1.73
2022-08-09T21:14:33.825Z,1.85
2022-08-09T21:17:02.370Z,1.67
2022-08-09T21:20:16.985Z,1.70
2022-08-09T21:22:39.504Z,1.85
2022-08-09T21:25:06.441Z,1.70
2022-08-09T21:27:52.377Z,1.67
2022-08-09T21:30:20.049Z,2.08
2022-08-09T21:32:49.837Z,1.60
2022-08-09T21:35:16.565Z,2.05
2022-08-09T21:37:58.582Z,1.73
2022-08-09T21:40:30.638Z,1.67
2022-08-09T21:43:03.050Z,1.60
2022-08-09T21:45:30.447Z,1.65
2022-08-09T21:47:57.402Z,1.67
2022-08-09T21:50:33.852Z,1.60
2022-08-09T21:53:06.249Z,1.77
2022-08-09T21:55:32.659Z,1.90
2022-08-09T21:58:00.579Z,1.83
2022-08-09T22:00:33.195Z,1.73
2022-08-09T22:03:05.579Z,1.70
2022-08-09T22:05:37.382Z,1.77
2022-08-09T22:08:12.871Z,1.65
2022-08-09T22:11:00.216Z,1.63
2022-08-09T22:13:31.429Z,1.60
2022-08-09T22:16:03.775Z,1.95
2022-08-09T22:18:32.644Z,1.75
2022-08-09T22:20:59.239Z,1.83
2022-08-09T22:23:26.820Z,1.92
2022-08-09T22:26:07.825Z,1.90
2022-08-09T22:28:36.023Z,1.93
2022-08-09T22:31:13.657Z,1.98
2022-08-09T22:33:48.992Z,1.60
2022-08-09T22:36:21.456Z,2.20
2022-08-09T22:38:48.700Z,1.88
2022-08-09T22:41:15.089Z,1.73
2022-08-09T22:44:01.579Z,2.10
2022-08-09T22:48:10.613Z,1.70
2022-08-09T22:49:15.410Z,1.88
2022-08-09T22:51:43.467Z,1.85
2022-08-09T22:54:16.030Z,2.00
2022-08-09T22:56:47.528Z,2.00
2022-08-09T22:59:56.715Z,1.83
2022-08-09T23:02:03.622Z,2.03
2022-08-09T23:04:32.636Z,1.98
2022-08-09T23:06:59.281Z,1.95
2022-08-09T23:09:25.628Z,1.58
2022-08-09T23:11:51.984Z,1.88
2022-08-09T23:14:18.372Z,1.90
2022-08-09T23:17:04.796Z,2.20
2022-08-09T23:19:31.128Z,2.50
2022-08-09T23:22:17.501Z,1.92
2022-08-09T23:24:43.840Z,2.13
2022-08-09T23:27:15.060Z,2.00
2022-08-09T23:29:41.447Z,2.00
2022-08-09T23:32:07.813Z,2.17
2022-08-09T23:34:34.143Z,1.92
2022-08-09T23:37:00.582Z,2.25
2022-08-09T23:39:26.988Z,1.90
2022-08-09T23:41:53.438Z,2.20
2022-08-09T23:44:19.839Z,1.88
2022-08-09T23:46:46.279Z,1.80
2022-08-09T23:49:24.596Z,2.30
2022-08-09T23:51:51.511Z,2.50
2022-08-09T23:54:17.871Z,2.20
2022-08-09T23:56:53.920Z,1.90
2022-08-09T23:59:22.375Z,2.05
